This is the latest recevied weather packets stored in our database for station/object W4CPD. If no packets are shown the sender has not sent any weather packets the latest 10 day(s).
| Time | Temp. | Humidity | Pressure | Rain* | Wind** | Luminosity | Snow |
|---|---|---|---|---|---|---|---|
| 1777497332 | 27.22° C | 79% | 1012.8 hPa | 0 mm | - | - | - |
| 1777495528 | 28.33° C | 75% | 1013.2 hPa | 0 mm | - | - | - |
| 1777493729 | 26.67° C | 81% | 1013.5 hPa | 0 mm | - | - | - |
| 1777491315 | 27.78° C | 80% | 1014.4 hPa | 0 mm | - | - | - |
| 1777489514 | 28.33° C | 79% | 1014.9 hPa | 0 mm | - | - | - |
| 1777489230 | 28.33° C | 79% | 1015.1 hPa | 0 mm | - | - | - |
| 1777488915 | 28.33° C | 78% | 1015.2 hPa | 0 mm | - | - | - |
| 1777488014 | 28.33° C | 78% | 1015.3 hPa | 0 mm | - | - | - |
| 1777485914 | 27.78° C | 79% | 1015.7 hPa | 0 mm | - | - | - |
| 1777484729 | 28.89° C | 77% | 1015.9 hPa | 0 mm | - | - | - |
| 1777483835 | 27.78° C | 79% | 1016.1 hPa | 0 mm | - | - | - |
| 1777480813 | 27.78° C | 79% | 1017.1 hPa | 0 mm | - | - | - |
| 1777480233 | 27.78° C | 79% | 1017.1 hPa | 0 mm | - | - | - |
| 1777478112 | 26.67° C | 84% | 1017.1 hPa | 0 mm | - | - | - |
| 1777476013 | 26.11° C | 87% | 1017.5 hPa | 0 mm | - | - | - |
| 1777473929 | 24.44° C | 93% | 1017.8 hPa | 0 mm | - | - | - |
| 1777470913 | 23.33° C | 95% | 1018 hPa | 0 mm | - | - | - |
| 1777469715 | 23.33° C | 96% | 1018.1 hPa | 0 mm | - | - | - |
| 1777469429 | 23.33° C | 96% | 1018 hPa | 0 mm | - | - | - |
| 1777468815 | 23.33° C | 97% | 1017.7 hPa | 0 mm | - | - | - |
| 1777468214 | 22.78° C | 97% | 1017.8 hPa | 0 mm | - | - | - |
| 1777467918 | 22.78° C | 97% | 1018.1 hPa | 0 mm | - | - | - |
| 1777467629 | 22.78° C | 97% | 1018 hPa | 0 mm | - | - | - |
| 1777467319 | 22.78° C | 98% | 1018 hPa | 0 mm | - | - | - |
| 1777467015 | 22.78° C | 98% | 1018 hPa | 0 mm | - | - | - |
* Rain latest hour (hover to see other rain measurements)
** Current wind speed in m/s (hover to see current wind gust speed)